sensor_id;sensor_type;location;lat;lon;timestamp;P1;durP1;ratioP1;P2;durP2;ratioP2
68365;SDS011;55283;51.466;5.478;2022-07-05T00:00:03;2.47;;;1.33;;
68365;SDS011;55283;51.466;5.478;2022-07-05T00:04:59;3.53;;;1.50;;
68365;SDS011;55283;51.466;5.478;2022-07-05T00:07:24;1.30;;;1.20;;
68365;SDS011;55283;51.466;5.478;2022-07-05T00:09:56;1.50;;;1.30;;
68365;SDS011;55283;51.466;5.478;2022-07-05T00:12:24;1.40;;;1.30;;
68365;SDS011;55283;51.466;5.478;2022-07-05T00:14:57;1.73;;;1.33;;
68365;SDS011;55283;51.466;5.478;2022-07-05T00:17:23;2.22;;;1.30;;
68365;SDS011;55283;51.466;5.478;2022-07-05T00:19:48;2.20;;;1.40;;
68365;SDS011;55283;51.466;5.478;2022-07-05T00:22:14;1.70;;;1.30;;
68365;SDS011;55283;51.466;5.478;2022-07-05T00:24:40;1.60;;;1.25;;
68365;SDS011;55283;51.466;5.478;2022-07-05T00:27:05;2.47;;;1.30;;
68365;SDS011;55283;51.466;5.478;2022-07-05T00:29:31;1.33;;;1.23;;
68365;SDS011;55283;51.466;5.478;2022-07-05T00:31:56;2.33;;;1.50;;
68365;SDS011;55283;51.466;5.478;2022-07-05T00:34:22;2.33;;;1.40;;
68365;SDS011;55283;51.466;5.478;2022-07-05T00:36:47;2.25;;;1.50;;
68365;SDS011;55283;51.466;5.478;2022-07-05T00:39:13;1.50;;;1.40;;
68365;SDS011;55283;51.466;5.478;2022-07-05T00:41:39;2.10;;;1.45;;
68365;SDS011;55283;51.466;5.478;2022-07-05T00:44:05;1.57;;;1.30;;
68365;SDS011;55283;51.466;5.478;2022-07-05T00:46:33;2.33;;;1.40;;
68365;SDS011;55283;51.466;5.478;2022-07-05T00:49:00;2.43;;;1.40;;
68365;SDS011;55283;51.466;5.478;2022-07-05T00:51:28;1.67;;;1.40;;
68365;SDS011;55283;51.466;5.478;2022-07-05T00:53:56;1.83;;;1.40;;
68365;SDS011;55283;51.466;5.478;2022-07-05T00:56:23;2.10;;;1.58;;
68365;SDS011;55283;51.466;5.478;2022-07-05T00:58:50;2.80;;;1.47;;
68365;SDS011;55283;51.466;5.478;2022-07-05T01:01:16;1.80;;;1.50;;
68365;SDS011;55283;51.466;5.478;2022-07-05T01:03:42;2.72;;;1.50;;
68365;SDS011;55283;51.466;5.478;2022-07-05T01:06:09;2.73;;;1.40;;
68365;SDS011;55283;51.466;5.478;2022-07-05T01:08:40;2.20;;;1.40;;
68365;SDS011;55283;51.466;5.478;2022-07-05T01:11:07;2.65;;;1.40;;
68365;SDS011;55283;51.466;5.478;2022-07-05T01:13:34;1.70;;;1.40;;
68365;SDS011;55283;51.466;5.478;2022-07-05T01:16:01;3.50;;;1.50;;
68365;SDS011;55283;51.466;5.478;2022-07-05T01:18:27;1.48;;;1.30;;
68365;SDS011;55283;51.466;5.478;2022-07-05T01:20:53;2.37;;;1.40;;
68365;SDS011;55283;51.466;5.478;2022-07-05T01:23:19;2.13;;;1.45;;
68365;SDS011;55283;51.466;5.478;2022-07-05T01:25:46;1.60;;;1.50;;
68365;SDS011;55283;51.466;5.478;2022-07-05T01:28:13;2.50;;;1.40;;
68365;SDS011;55283;51.466;5.478;2022-07-05T01:30:39;3.65;;;1.63;;
68365;SDS011;55283;51.466;5.478;2022-07-05T01:33:06;2.67;;;1.55;;
68365;SDS011;55283;51.466;5.478;2022-07-05T01:35:32;1.60;;;1.40;;
68365;SDS011;55283;51.466;5.478;2022-07-05T01:37:59;2.23;;;1.60;;
68365;SDS011;55283;51.466;5.478;2022-07-05T01:40:24;2.58;;;1.63;;
68365;SDS011;55283;51.466;5.478;2022-07-05T01:42:50;2.90;;;1.60;;
68365;SDS011;55283;51.466;5.478;2022-07-05T01:45:16;2.13;;;1.50;;
68365;SDS011;55283;51.466;5.478;2022-07-05T01:48:01;3.37;;;1.60;;
68365;SDS011;55283;51.466;5.478;2022-07-05T01:50:28;2.45;;;1.77;;
68365;SDS011;55283;51.466;5.478;2022-07-05T01:52:56;2.58;;;1.73;;
68365;SDS011;55283;51.466;5.478;2022-07-05T01:55:25;1.90;;;1.60;;
68365;SDS011;55283;51.466;5.478;2022-07-05T01:57:51;3.80;;;1.80;;
68365;SDS011;55283;51.466;5.478;2022-07-05T02:00:16;2.73;;;1.50;;
68365;SDS011;55283;51.466;5.478;2022-07-05T02:02:42;2.27;;;1.70;;
68365;SDS011;55283;51.466;5.478;2022-07-05T02:05:07;2.10;;;1.60;;
68365;SDS011;55283;51.466;5.478;2022-07-05T02:07:33;2.30;;;1.60;;
68365;SDS011;55283;51.466;5.478;2022-07-05T02:09:58;2.83;;;1.70;;
68365;SDS011;55283;51.466;5.478;2022-07-05T02:12:24;2.92;;;1.70;;
68365;SDS011;55283;51.466;5.478;2022-07-05T02:14:49;2.53;;;1.53;;
68365;SDS011;55283;51.466;5.478;2022-07-05T02:17:15;2.30;;;1.70;;
68365;SDS011;55283;51.466;5.478;2022-07-05T02:19:40;3.10;;;1.70;;
68365;SDS011;55283;51.466;5.478;2022-07-05T02:22:06;2.43;;;1.60;;
68365;SDS011;55283;51.466;5.478;2022-07-05T02:24:32;2.30;;;1.70;;
68365;SDS011;55283;51.466;5.478;2022-07-05T02:26:58;1.85;;;1.75;;
68365;SDS011;55283;51.466;5.478;2022-07-05T02:29:24;3.07;;;1.73;;
68365;SDS011;55283;51.466;5.478;2022-07-05T02:31:49;2.50;;;1.60;;
68365;SDS011;55283;51.466;5.478;2022-07-05T02:34:15;2.37;;;1.80;;
68365;SDS011;55283;51.466;5.478;2022-07-05T02:36:40;2.17;;;1.90;;
68365;SDS011;55283;51.466;5.478;2022-07-05T02:39:05;2.53;;;1.63;;
68365;SDS011;55283;51.466;5.478;2022-07-05T02:41:31;3.17;;;1.80;;
68365;SDS011;55283;51.466;5.478;2022-07-05T02:43:57;3.27;;;1.83;;
68365;SDS011;55283;51.466;5.478;2022-07-05T02:46:22;2.97;;;1.70;;
68365;SDS011;55283;51.466;5.478;2022-07-05T02:48:47;3.17;;;1.70;;
68365;SDS011;55283;51.466;5.478;2022-07-05T02:51:13;2.75;;;1.70;;
68365;SDS011;55283;51.466;5.478;2022-07-05T02:53:41;3.17;;;1.87;;
68365;SDS011;55283;51.466;5.478;2022-07-05T02:56:06;2.00;;;1.80;;
68365;SDS011;55283;51.466;5.478;2022-07-05T02:58:32;2.63;;;1.50;;
68365;SDS011;55283;51.466;5.478;2022-07-05T03:00:58;2.83;;;1.77;;
68365;SDS011;55283;51.466;5.478;2022-07-05T03:03:23;4.50;;;1.83;;
68365;SDS011;55283;51.466;5.478;2022-07-05T03:05:49;2.10;;;1.70;;
68365;SDS011;55283;51.466;5.478;2022-07-05T03:08:14;3.17;;;1.80;;
68365;SDS011;55283;51.466;5.478;2022-07-05T03:10:40;3.20;;;1.50;;
68365;SDS011;55283;51.466;5.478;2022-07-05T03:13:06;2.67;;;1.60;;
68365;SDS011;55283;51.466;5.478;2022-07-05T03:15:31;4.10;;;1.77;;
68365;SDS011;55283;51.466;5.478;2022-07-05T03:17:57;2.67;;;1.80;;
68365;SDS011;55283;51.466;5.478;2022-07-05T03:20:22;3.50;;;1.60;;
68365;SDS011;55283;51.466;5.478;2022-07-05T03:22:48;3.57;;;1.80;;
68365;SDS011;55283;51.466;5.478;2022-07-05T03:25:13;2.50;;;1.80;;
68365;SDS011;55283;51.466;5.478;2022-07-05T03:27:38;1.93;;;1.50;;
68365;SDS011;55283;51.466;5.478;2022-07-05T03:30:04;2.23;;;1.90;;
68365;SDS011;55283;51.466;5.478;2022-07-05T03:32:30;2.38;;;1.70;;
68365;SDS011;55283;51.466;5.478;2022-07-05T03:34:55;2.57;;;1.70;;
68365;SDS011;55283;51.466;5.478;2022-07-05T03:37:21;2.40;;;1.67;;
68365;SDS011;55283;51.466;5.478;2022-07-05T03:39:46;3.97;;;1.90;;
68365;SDS011;55283;51.466;5.478;2022-07-05T03:42:12;2.30;;;2.00;;
68365;SDS011;55283;51.466;5.478;2022-07-05T03:44:37;3.27;;;1.80;;
68365;SDS011;55283;51.466;5.478;2022-07-05T03:47:03;2.07;;;1.80;;
68365;SDS011;55283;51.466;5.478;2022-07-05T03:49:28;2.30;;;1.90;;
68365;SDS011;55283;51.466;5.478;2022-07-05T03:51:53;4.30;;;2.00;;
68365;SDS011;55283;51.466;5.478;2022-07-05T03:54:19;2.47;;;1.83;;
68365;SDS011;55283;51.466;5.478;2022-07-05T03:56:44;2.70;;;1.70;;
68365;SDS011;55283;51.466;5.478;2022-07-05T03:59:10;3.13;;;2.00;;
68365;SDS011;55283;51.466;5.478;2022-07-05T04:01:35;2.37;;;1.70;;
68365;SDS011;55283;51.466;5.478;2022-07-05T04:04:01;2.33;;;1.90;;
68365;SDS011;55283;51.466;5.478;2022-07-05T04:06:27;3.07;;;1.73;;
68365;SDS011;55283;51.466;5.478;2022-07-05T04:08:52;2.43;;;2.00;;
68365;SDS011;55283;51.466;5.478;2022-07-05T04:11:18;3.35;;;1.90;;
68365;SDS011;55283;51.466;5.478;2022-07-05T04:13:43;3.07;;;2.10;;
68365;SDS011;55283;51.466;5.478;2022-07-05T04:16:09;2.13;;;1.70;;
68365;SDS011;55283;51.466;5.478;2022-07-05T04:18:34;2.35;;;1.83;;
68365;SDS011;55283;51.466;5.478;2022-07-05T04:21:01;3.17;;;2.07;;
68365;SDS011;55283;51.466;5.478;2022-07-05T04:23:27;5.40;;;1.90;;
68365;SDS011;55283;51.466;5.478;2022-07-05T04:25:52;2.70;;;1.90;;
68365;SDS011;55283;51.466;5.478;2022-07-05T04:28:18;2.15;;;1.90;;
68365;SDS011;55283;51.466;5.478;2022-07-05T04:30:44;2.97;;;1.93;;
68365;SDS011;55283;51.466;5.478;2022-07-05T04:33:09;4.33;;;1.90;;
68365;SDS011;55283;51.466;5.478;2022-07-05T04:35:34;2.55;;;1.73;;
68365;SDS011;55283;51.466;5.478;2022-07-05T04:38:00;2.70;;;1.73;;
68365;SDS011;55283;51.466;5.478;2022-07-05T04:40:25;3.63;;;1.90;;
68365;SDS011;55283;51.466;5.478;2022-07-05T04:42:51;3.23;;;1.90;;
68365;SDS011;55283;51.466;5.478;2022-07-05T04:45:16;2.80;;;2.10;;
68365;SDS011;55283;51.466;5.478;2022-07-05T04:47:42;2.22;;;1.98;;
68365;SDS011;55283;51.466;5.478;2022-07-05T04:50:07;3.17;;;1.90;;
68365;SDS011;55283;51.466;5.478;2022-07-05T04:52:33;2.50;;;1.90;;
68365;SDS011;55283;51.466;5.478;2022-07-05T04:54:59;2.20;;;1.80;;
68365;SDS011;55283;51.466;5.478;2022-07-05T04:57:24;2.50;;;1.77;;
68365;SDS011;55283;51.466;5.478;2022-07-05T04:59:50;2.38;;;1.90;;
68365;SDS011;55283;51.466;5.478;2022-07-05T05:02:15;3.53;;;1.80;;
68365;SDS011;55283;51.466;5.478;2022-07-05T05:04:40;2.97;;;2.00;;
68365;SDS011;55283;51.466;5.478;2022-07-05T05:07:06;2.40;;;1.93;;
68365;SDS011;55283;51.466;5.478;2022-07-05T05:09:31;2.07;;;1.80;;
68365;SDS011;55283;51.466;5.478;2022-07-05T05:11:57;3.17;;;2.10;;
68365;SDS011;55283;51.466;5.478;2022-07-05T05:14:22;2.00;;;1.80;;
68365;SDS011;55283;51.466;5.478;2022-07-05T05:16:47;2.43;;;2.10;;
68365;SDS011;55283;51.466;5.478;2022-07-05T05:19:13;2.20;;;1.83;;
68365;SDS011;55283;51.466;5.478;2022-07-05T05:21:38;2.60;;;2.00;;
68365;SDS011;55283;51.466;5.478;2022-07-05T05:24:04;2.30;;;1.87;;
68365;SDS011;55283;51.466;5.478;2022-07-05T05:26:30;3.63;;;2.10;;
68365;SDS011;55283;51.466;5.478;2022-07-05T05:28:55;2.53;;;2.20;;
68365;SDS011;55283;51.466;5.478;2022-07-05T05:31:21;7.63;;;2.00;;
68365;SDS011;55283;51.466;5.478;2022-07-05T05:33:46;2.72;;;1.98;;
68365;SDS011;55283;51.466;5.478;2022-07-05T05:36:12;3.17;;;2.07;;
68365;SDS011;55283;51.466;5.478;2022-07-05T05:38:37;5.97;;;2.00;;
68365;SDS011;55283;51.466;5.478;2022-07-05T05:41:03;3.42;;;2.40;;
68365;SDS011;55283;51.466;5.478;2022-07-05T05:43:28;5.13;;;2.20;;
68365;SDS011;55283;51.466;5.478;2022-07-05T05:45:54;5.13;;;2.00;;
68365;SDS011;55283;51.466;5.478;2022-07-05T05:48:19;6.13;;;2.20;;
68365;SDS011;55283;51.466;5.478;2022-07-05T05:50:45;2.80;;;1.90;;
68365;SDS011;55283;51.466;5.478;2022-07-05T05:53:11;4.00;;;2.10;;
68365;SDS011;55283;51.466;5.478;2022-07-05T05:55:36;2.90;;;2.07;;
68365;SDS011;55283;51.466;5.478;2022-07-05T05:58:14;3.43;;;2.10;;
68365;SDS011;55283;51.466;5.478;2022-07-05T06:00:46;6.05;;;2.10;;
68365;SDS011;55283;51.466;5.478;2022-07-05T06:03:13;3.75;;;1.90;;
68365;SDS011;55283;51.466;5.478;2022-07-05T06:05:40;6.17;;;2.20;;
68365;SDS011;55283;51.466;5.478;2022-07-05T06:08:06;6.32;;;2.20;;
68365;SDS011;55283;51.466;5.478;2022-07-05T06:10:32;3.43;;;2.20;;
68365;SDS011;55283;51.466;5.478;2022-07-05T06:13:00;3.88;;;2.03;;
68365;SDS011;55283;51.466;5.478;2022-07-05T06:15:27;3.25;;;2.10;;
68365;SDS011;55283;51.466;5.478;2022-07-05T06:17:53;4.30;;;2.47;;
68365;SDS011;55283;51.466;5.478;2022-07-05T06:20:21;2.92;;;2.20;;
68365;SDS011;55283;51.466;5.478;2022-07-05T06:22:48;10.63;;;2.45;;
68365;SDS011;55283;51.466;5.478;2022-07-05T06:25:14;7.80;;;4.33;;
68365;SDS011;55283;51.466;5.478;2022-07-05T06:27:49;9.18;;;4.97;;
68365;SDS011;55283;51.466;5.478;2022-07-05T06:30:19;11.23;;;5.50;;
68365;SDS011;55283;51.466;5.478;2022-07-05T06:32:46;7.55;;;5.47;;
68365;SDS011;55283;51.466;5.478;2022-07-05T06:35:13;8.02;;;4.55;;
68365;SDS011;55283;51.466;5.478;2022-07-05T06:37:46;10.90;;;4.77;;
68365;SDS011;55283;51.466;5.478;2022-07-05T06:40:23;11.27;;;5.00;;
68365;SDS011;55283;51.466;5.478;2022-07-05T06:42:51;12.38;;;4.80;;
68365;SDS011;55283;51.466;5.478;2022-07-05T06:45:18;9.57;;;4.72;;
68365;SDS011;55283;51.466;5.478;2022-07-05T06:47:44;9.63;;;4.90;;
68365;SDS011;55283;51.466;5.478;2022-07-05T06:50:10;7.82;;;4.75;;
68365;SDS011;55283;51.466;5.478;2022-07-05T06:52:36;10.13;;;5.60;;
68365;SDS011;55283;51.466;5.478;2022-07-05T06:55:02;8.27;;;5.38;;
68365;SDS011;55283;51.466;5.478;2022-07-05T06:57:28;8.27;;;5.57;;
68365;SDS011;55283;51.466;5.478;2022-07-05T06:59:54;9.83;;;4.73;;
68365;SDS011;55283;51.466;5.478;2022-07-05T07:02:19;8.93;;;4.00;;
68365;SDS011;55283;51.466;5.478;2022-07-05T07:04:46;10.30;;;4.70;;
68365;SDS011;55283;51.466;5.478;2022-07-05T07:07:12;7.53;;;4.22;;
68365;SDS011;55283;51.466;5.478;2022-07-05T07:09:57;7.45;;;3.88;;
68365;SDS011;55283;51.466;5.478;2022-07-05T07:12:23;6.83;;;3.60;;
68365;SDS011;55283;51.466;5.478;2022-07-05T07:14:49;7.78;;;3.90;;
68365;SDS011;55283;51.466;5.478;2022-07-05T07:17:15;8.73;;;4.07;;
68365;SDS011;55283;51.466;5.478;2022-07-05T07:19:41;6.90;;;3.93;;
68365;SDS011;55283;51.466;5.478;2022-07-05T07:22:06;7.17;;;3.27;;
68365;SDS011;55283;51.466;5.478;2022-07-05T07:24:32;8.18;;;3.40;;
68365;SDS011;55283;51.466;5.478;2022-07-05T07:26:57;6.77;;;3.13;;
68365;SDS011;55283;51.466;5.478;2022-07-05T07:29:29;7.00;;;2.83;;
68365;SDS011;55283;51.466;5.478;2022-07-05T07:32:03;7.95;;;3.10;;
68365;SDS011;55283;51.466;5.478;2022-07-05T07:34:30;6.00;;;3.08;;
68365;SDS011;55283;51.466;5.478;2022-07-05T07:36:56;8.40;;;3.97;;
68365;SDS011;55283;51.466;5.478;2022-07-05T07:39:22;7.93;;;3.67;;
68365;SDS011;55283;51.466;5.478;2022-07-05T07:41:48;8.38;;;3.50;;
68365;SDS011;55283;51.466;5.478;2022-07-05T07:44:14;8.00;;;3.90;;
68365;SDS011;55283;51.466;5.478;2022-07-05T07:46:40;6.10;;;3.63;;
68365;SDS011;55283;51.466;5.478;2022-07-05T07:49:06;8.90;;;3.87;;
68365;SDS011;55283;51.466;5.478;2022-07-05T07:51:32;7.90;;;3.40;;
68365;SDS011;55283;51.466;5.478;2022-07-05T07:53:58;17.67;;;3.70;;
68365;SDS011;55283;51.466;5.478;2022-07-05T07:56:24;14.03;;;3.27;;
68365;SDS011;55283;51.466;5.478;2022-07-05T07:58:50;10.40;;;3.80;;
68365;SDS011;55283;51.466;5.478;2022-07-05T08:01:15;12.67;;;3.70;;
68365;SDS011;55283;51.466;5.478;2022-07-05T08:03:41;9.90;;;4.73;;
68365;SDS011;55283;51.466;5.478;2022-07-05T08:06:07;9.73;;;4.10;;
68365;SDS011;55283;51.466;5.478;2022-07-05T08:08:35;8.57;;;3.92;;
68365;SDS011;55283;51.466;5.478;2022-07-05T08:11:01;10.63;;;4.03;;
68365;SDS011;55283;51.466;5.478;2022-07-05T08:13:26;9.57;;;4.18;;
68365;SDS011;55283;51.466;5.478;2022-07-05T08:15:52;8.57;;;4.40;;
68365;SDS011;55283;51.466;5.478;2022-07-05T08:18:18;10.10;;;4.18;;
68365;SDS011;55283;51.466;5.478;2022-07-05T08:21:02;8.30;;;3.90;;
68365;SDS011;55283;51.466;5.478;2022-07-05T08:23:45;8.77;;;3.60;;
68365;SDS011;55283;51.466;5.478;2022-07-05T08:26:11;12.20;;;4.90;;
68365;SDS011;55283;51.466;5.478;2022-07-05T08:28:36;11.77;;;5.00;;
68365;SDS011;55283;51.466;5.478;2022-07-05T08:31:02;11.03;;;4.93;;
68365;SDS011;55283;51.466;5.478;2022-07-05T08:33:27;8.68;;;4.88;;
68365;SDS011;55283;51.466;5.478;2022-07-05T08:35:52;12.10;;;5.73;;
68365;SDS011;55283;51.466;5.478;2022-07-05T08:38:18;12.27;;;5.63;;
68365;SDS011;55283;51.466;5.478;2022-07-05T08:40:43;13.33;;;6.47;;
68365;SDS011;55283;51.466;5.478;2022-07-05T08:43:12;13.90;;;6.60;;
68365;SDS011;55283;51.466;5.478;2022-07-05T08:45:39;12.40;;;6.00;;
68365;SDS011;55283;51.466;5.478;2022-07-05T08:48:08;10.07;;;5.40;;
68365;SDS011;55283;51.466;5.478;2022-07-05T08:50:34;10.52;;;5.00;;
68365;SDS011;55283;51.466;5.478;2022-07-05T08:53:03;9.45;;;4.80;;
68365;SDS011;55283;51.466;5.478;2022-07-05T08:55:28;9.83;;;5.17;;
68365;SDS011;55283;51.466;5.478;2022-07-05T08:57:56;15.07;;;6.13;;
68365;SDS011;55283;51.466;5.478;2022-07-05T09:00:22;12.07;;;5.63;;
68365;SDS011;55283;51.466;5.478;2022-07-05T09:02:47;13.90;;;4.93;;
68365;SDS011;55283;51.466;5.478;2022-07-05T09:05:15;12.45;;;5.97;;
68365;SDS011;55283;51.466;5.478;2022-07-05T09:07:45;8.82;;;4.53;;
68365;SDS011;55283;51.466;5.478;2022-07-05T09:10:17;9.27;;;4.33;;
68365;SDS011;55283;51.466;5.478;2022-07-05T09:12:46;9.88;;;5.50;;
68365;SDS011;55283;51.466;5.478;2022-07-05T09:15:12;9.73;;;4.47;;
68365;SDS011;55283;51.466;5.478;2022-07-05T09:17:44;11.87;;;5.07;;
68365;SDS011;55283;51.466;5.478;2022-07-05T09:25:12;9.38;;;4.50;;
68365;SDS011;55283;51.466;5.478;2022-07-05T09:27:58;8.47;;;4.20;;
68365;SDS011;55283;51.466;5.478;2022-07-05T09:35:26;7.33;;;3.30;;
68365;SDS011;55283;51.466;5.478;2022-07-05T09:37:51;6.40;;;2.92;;
68365;SDS011;55283;51.466;5.478;2022-07-05T09:40:17;6.70;;;2.70;;
68365;SDS011;55283;51.466;5.478;2022-07-05T09:42:42;6.07;;;2.57;;
68365;SDS011;55283;51.466;5.478;2022-07-05T09:45:07;6.17;;;2.20;;
68365;SDS011;55283;51.466;5.478;2022-07-05T09:47:33;7.68;;;2.78;;
68365;SDS011;55283;51.466;5.478;2022-07-05T09:49:59;4.33;;;2.20;;
68365;SDS011;55283;51.466;5.478;2022-07-05T09:55:10;5.80;;;2.23;;
68365;SDS011;55283;51.466;5.478;2022-07-05T09:57:43;11.63;;;3.92;;
68365;SDS011;55283;51.466;5.478;2022-07-05T10:00:10;11.27;;;4.35;;
68365;SDS011;55283;51.466;5.478;2022-07-05T10:05:22;7.73;;;3.37;;
68365;SDS011;55283;51.466;5.478;2022-07-05T10:07:49;6.68;;;3.00;;
68365;SDS011;55283;51.466;5.478;2022-07-05T10:10:21;7.80;;;2.78;;
68365;SDS011;55283;51.466;5.478;2022-07-05T10:12:48;5.23;;;2.77;;
68365;SDS011;55283;51.466;5.478;2022-07-05T10:15:16;7.97;;;2.70;;
68365;SDS011;55283;51.466;5.478;2022-07-05T10:17:44;8.55;;;3.03;;
68365;SDS011;55283;51.466;5.478;2022-07-05T10:20:33;8.83;;;2.77;;
68365;SDS011;55283;51.466;5.478;2022-07-05T10:23:01;8.02;;;2.40;;
68365;SDS011;55283;51.466;5.478;2022-07-05T10:25:28;6.40;;;2.38;;
68365;SDS011;55283;51.466;5.478;2022-07-05T10:27:54;6.30;;;2.60;;
68365;SDS011;55283;51.466;5.478;2022-07-05T10:30:20;6.97;;;2.05;;
68365;SDS011;55283;51.466;5.478;2022-07-05T10:32:48;5.15;;;2.15;;
68365;SDS011;55283;51.466;5.478;2022-07-05T10:35:14;5.33;;;1.90;;
68365;SDS011;55283;51.466;5.478;2022-07-05T10:37:42;5.28;;;2.20;;
68365;SDS011;55283;51.466;5.478;2022-07-05T10:40:08;7.03;;;2.30;;
68365;SDS011;55283;51.466;5.478;2022-07-05T10:42:36;4.20;;;2.10;;
68365;SDS011;55283;51.466;5.478;2022-07-05T10:48:12;6.18;;;2.15;;
68365;SDS011;55283;51.466;5.478;2022-07-05T10:58:29;6.22;;;2.60;;
68365;SDS011;55283;51.466;5.478;2022-07-05T11:03:48;5.30;;;2.47;;
68365;SDS011;55283;51.466;5.478;2022-07-05T11:06:23;6.18;;;2.20;;
68365;SDS011;55283;51.466;5.478;2022-07-05T11:11:28;4.18;;;2.30;;
68365;SDS011;55283;51.466;5.478;2022-07-05T11:13:54;3.30;;;1.80;;
68365;SDS011;55283;51.466;5.478;2022-07-05T11:16:27;3.58;;;2.38;;
68365;SDS011;55283;51.466;5.478;2022-07-05T11:19:10;4.70;;;2.37;;
68365;SDS011;55283;51.466;5.478;2022-07-05T11:21:38;5.78;;;2.30;;
68365;SDS011;55283;51.466;5.478;2022-07-05T11:24:21;4.93;;;2.33;;
68365;SDS011;55283;51.466;5.478;2022-07-05T11:26:51;4.33;;;2.17;;
68365;SDS011;55283;51.466;5.478;2022-07-05T11:32:05;6.32;;;2.00;;
68365;SDS011;55283;51.466;5.478;2022-07-05T11:34:32;4.00;;;2.00;;
68365;SDS011;55283;51.466;5.478;2022-07-05T11:37:43;4.05;;;1.80;;
68365;SDS011;55283;51.466;5.478;2022-07-05T11:39:44;4.93;;;1.83;;
68365;SDS011;55283;51.466;5.478;2022-07-05T11:42:19;3.75;;;1.90;;
68365;SDS011;55283;51.466;5.478;2022-07-05T11:44:51;5.77;;;1.73;;
68365;SDS011;55283;51.466;5.478;2022-07-05T11:47:18;3.05;;;1.92;;
68365;SDS011;55283;51.466;5.478;2022-07-05T11:49:54;4.07;;;1.80;;
68365;SDS011;55283;51.466;5.478;2022-07-05T11:52:27;5.93;;;1.80;;
68365;SDS011;55283;51.466;5.478;2022-07-05T11:54:55;3.20;;;1.80;;
68365;SDS011;55283;51.466;5.478;2022-07-05T11:57:21;3.53;;;1.70;;
68365;SDS011;55283;51.466;5.478;2022-07-05T11:59:47;4.33;;;1.63;;
68365;SDS011;55283;51.466;5.478;2022-07-05T12:02:12;3.40;;;1.90;;
68365;SDS011;55283;51.466;5.478;2022-07-05T12:04:38;3.70;;;1.90;;
68365;SDS011;55283;51.466;5.478;2022-07-05T12:07:04;3.20;;;1.70;;
68365;SDS011;55283;51.466;5.478;2022-07-05T12:09:30;3.20;;;1.70;;
68365;SDS011;55283;51.466;5.478;2022-07-05T12:12:21;2.95;;;1.30;;
68365;SDS011;55283;51.466;5.478;2022-07-05T12:17:35;2.88;;;1.55;;
68365;SDS011;55283;51.466;5.478;2022-07-05T12:20:01;1.47;;;1.37;;
68365;SDS011;55283;51.466;5.478;2022-07-05T12:22:32;3.20;;;1.80;;
68365;SDS011;55283;51.466;5.478;2022-07-05T12:24:59;3.38;;;1.58;;
68365;SDS011;55283;51.466;5.478;2022-07-05T12:27:26;3.40;;;1.40;;
68365;SDS011;55283;51.466;5.478;2022-07-05T12:29:53;2.50;;;1.33;;
68365;SDS011;55283;51.466;5.478;2022-07-05T12:32:18;2.55;;;1.45;;
68365;SDS011;55283;51.466;5.478;2022-07-05T12:34:44;3.00;;;1.30;;
68365;SDS011;55283;51.466;5.478;2022-07-05T12:37:09;2.80;;;1.50;;
68365;SDS011;55283;51.466;5.478;2022-07-05T12:39:35;2.25;;;1.50;;
68365;SDS011;55283;51.466;5.478;2022-07-05T12:42:00;3.00;;;1.37;;
68365;SDS011;55283;51.466;5.478;2022-07-05T12:44:26;2.43;;;1.60;;
68365;SDS011;55283;51.466;5.478;2022-07-05T12:46:51;2.30;;;1.60;;
68365;SDS011;55283;51.466;5.478;2022-07-05T12:49:18;2.33;;;1.50;;
68365;SDS011;55283;51.466;5.478;2022-07-05T12:51:45;2.90;;;1.60;;
68365;SDS011;55283;51.466;5.478;2022-07-05T12:54:23;2.20;;;1.40;;
68365;SDS011;55283;51.466;5.478;2022-07-05T12:57:07;1.65;;;1.30;;
68365;SDS011;55283;51.466;5.478;2022-07-05T13:00:02;2.40;;;1.40;;
68365;SDS011;55283;51.466;5.478;2022-07-05T13:03:03;1.60;;;1.37;;
68365;SDS011;55283;51.466;5.478;2022-07-05T13:05:22;1.95;;;1.30;;
68365;SDS011;55283;51.466;5.478;2022-07-05T13:07:50;2.55;;;1.40;;
68365;SDS011;55283;51.466;5.478;2022-07-05T13:10:23;2.43;;;1.23;;
68365;SDS011;55283;51.466;5.478;2022-07-05T13:12:56;2.95;;;1.40;;
68365;SDS011;55283;51.466;5.478;2022-07-05T13:15:22;3.45;;;1.50;;
68365;SDS011;55283;51.466;5.478;2022-07-05T13:17:47;4.27;;;1.67;;
68365;SDS011;55283;51.466;5.478;2022-07-05T13:20:14;2.03;;;1.30;;
68365;SDS011;55283;51.466;5.478;2022-07-05T13:22:42;2.50;;;1.40;;
68365;SDS011;55283;51.466;5.478;2022-07-05T13:25:07;1.90;;;1.30;;
68365;SDS011;55283;51.466;5.478;2022-07-05T13:27:33;2.40;;;1.40;;
68365;SDS011;55283;51.466;5.478;2022-07-05T13:30:00;1.80;;;1.35;;
68365;SDS011;55283;51.466;5.478;2022-07-05T13:32:25;1.48;;;1.30;;
68365;SDS011;55283;51.466;5.478;2022-07-05T13:34:51;1.70;;;1.33;;
68365;SDS011;55283;51.466;5.478;2022-07-05T13:37:17;2.28;;;1.50;;
68365;SDS011;55283;51.466;5.478;2022-07-05T13:39:42;1.73;;;1.10;;
68365;SDS011;55283;51.466;5.478;2022-07-05T13:42:08;2.10;;;1.50;;
68365;SDS011;55283;51.466;5.478;2022-07-05T13:44:33;1.50;;;1.30;;
68365;SDS011;55283;51.466;5.478;2022-07-05T13:46:59;1.67;;;1.33;;
68365;SDS011;55283;51.466;5.478;2022-07-05T13:49:25;2.40;;;1.50;;
68365;SDS011;55283;51.466;5.478;2022-07-05T13:51:50;3.10;;;1.30;;
68365;SDS011;55283;51.466;5.478;2022-07-05T13:54:16;2.07;;;1.50;;
68365;SDS011;55283;51.466;5.478;2022-07-05T13:56:41;1.20;;;1.10;;
68365;SDS011;55283;51.466;5.478;2022-07-05T13:59:07;1.87;;;1.30;;
68365;SDS011;55283;51.466;5.478;2022-07-05T14:01:32;1.87;;;1.40;;
68365;SDS011;55283;51.466;5.478;2022-07-05T14:03:58;2.43;;;1.20;;
68365;SDS011;55283;51.466;5.478;2022-07-05T14:06:27;1.97;;;1.27;;
68365;SDS011;55283;51.466;5.478;2022-07-05T14:08:53;1.90;;;1.40;;
68365;SDS011;55283;51.466;5.478;2022-07-05T14:11:18;3.67;;;1.43;;
68365;SDS011;55283;51.466;5.478;2022-07-05T14:13:44;3.53;;;1.50;;
68365;SDS011;55283;51.466;5.478;2022-07-05T14:16:09;2.57;;;1.30;;
68365;SDS011;55283;51.466;5.478;2022-07-05T14:18:35;2.20;;;1.40;;
68365;SDS011;55283;51.466;5.478;2022-07-05T14:21:02;1.52;;;1.30;;
68365;SDS011;55283;51.466;5.478;2022-07-05T14:23:27;2.97;;;1.40;;
68365;SDS011;55283;51.466;5.478;2022-07-05T14:25:53;3.80;;;1.30;;
68365;SDS011;55283;51.466;5.478;2022-07-05T14:28:18;4.03;;;1.00;;
68365;SDS011;55283;51.466;5.478;2022-07-05T14:30:44;4.00;;;1.23;;
68365;SDS011;55283;51.466;5.478;2022-07-05T14:33:11;2.97;;;1.50;;
68365;SDS011;55283;51.466;5.478;2022-07-05T14:35:38;2.63;;;1.50;;
68365;SDS011;55283;51.466;5.478;2022-07-05T14:38:05;2.17;;;1.30;;
68365;SDS011;55283;51.466;5.478;2022-07-05T14:40:31;2.45;;;1.35;;
68365;SDS011;55283;51.466;5.478;2022-07-05T14:42:57;6.18;;;1.98;;
68365;SDS011;55283;51.466;5.478;2022-07-05T14:45:23;3.63;;;2.30;;
68365;SDS011;55283;51.466;5.478;2022-07-05T14:47:50;6.77;;;2.63;;
68365;SDS011;55283;51.466;5.478;2022-07-05T14:50:15;3.10;;;1.80;;
68365;SDS011;55283;51.466;5.478;2022-07-05T14:52:41;2.83;;;1.53;;
68365;SDS011;55283;51.466;5.478;2022-07-05T14:55:07;4.43;;;1.80;;
68365;SDS011;55283;51.466;5.478;2022-07-05T14:57:34;4.07;;;1.50;;
68365;SDS011;55283;51.466;5.478;2022-07-05T15:00:00;1.90;;;1.30;;
68365;SDS011;55283;51.466;5.478;2022-07-05T15:02:25;2.70;;;1.43;;
68365;SDS011;55283;51.466;5.478;2022-07-05T15:04:51;3.35;;;1.58;;
68365;SDS011;55283;51.466;5.478;2022-07-05T15:07:16;1.70;;;1.33;;
68365;SDS011;55283;51.466;5.478;2022-07-05T15:09:42;3.33;;;1.83;;
68365;SDS011;55283;51.466;5.478;2022-07-05T15:12:07;3.73;;;1.47;;
68365;SDS011;55283;51.466;5.478;2022-07-05T15:14:33;2.28;;;1.40;;
68365;SDS011;55283;51.466;5.478;2022-07-05T15:16:58;2.23;;;1.20;;
68365;SDS011;55283;51.466;5.478;2022-07-05T15:19:24;2.00;;;1.48;;
68365;SDS011;55283;51.466;5.478;2022-07-05T15:21:49;1.60;;;1.20;;
68365;SDS011;55283;51.466;5.478;2022-07-05T15:24:15;4.20;;;1.30;;